sensor_id;sensor_type;location;lat;lon;timestamp;pressure;altitude;pressure_sealevel;temperature;humidity
62333;BME280;48624;49.812;8.562;2023-04-26T00:02:02;100760.84;;;4.19;87.21
62333;BME280;48624;49.812;8.562;2023-04-26T00:04:29;100754.09;;;4.12;87.47
62333;BME280;48624;49.812;8.562;2023-04-26T00:06:55;100763.91;;;4.30;86.82
62333;BME280;48624;49.812;8.562;2023-04-26T00:09:20;100761.16;;;4.10;89.49
62333;BME280;48624;49.812;8.562;2023-04-26T00:11:46;100758.53;;;4.10;88.24
62333;BME280;48624;49.812;8.562;2023-04-26T00:14:11;100754.69;;;4.20;86.79
62333;BME280;48624;49.812;8.562;2023-04-26T00:16:36;100759.16;;;4.16;88.41
62333;BME280;48624;49.812;8.562;2023-04-26T00:19:02;100766.41;;;4.10;88.09
62333;BME280;48624;49.812;8.562;2023-04-26T00:21:28;100762.28;;;4.02;88.65
62333;BME280;48624;49.812;8.562;2023-04-26T00:23:53;100766.25;;;3.89;89.46
62333;BME280;48624;49.812;8.562;2023-04-26T00:26:19;100764.75;;;3.82;90.67
62333;BME280;48624;49.812;8.562;2023-04-26T00:28:44;100770.63;;;3.88;89.48
62333;BME280;48624;49.812;8.562;2023-04-26T00:31:14;100770.28;;;3.99;87.87
62333;BME280;48624;49.812;8.562;2023-04-26T00:33:39;100771.72;;;3.83;89.41
62333;BME280;48624;49.812;8.562;2023-04-26T00:36:05;100766.41;;;3.84;89.01
62333;BME280;48624;49.812;8.562;2023-04-26T00:38:30;100767.81;;;3.95;87.09
62333;BME280;48624;49.812;8.562;2023-04-26T00:40:56;100780.47;;;3.82;89.53
62333;BME280;48624;49.812;8.562;2023-04-26T00:43:21;100770.34;;;3.71;90.09
62333;BME280;48624;49.812;8.562;2023-04-26T00:45:47;100768.63;;;3.44;91.56
62333;BME280;48624;49.812;8.562;2023-04-26T00:48:12;100775.22;;;3.56;91.20
62333;BME280;48624;49.812;8.562;2023-04-26T00:50:39;100782.16;;;3.57;90.47
62333;BME280;48624;49.812;8.562;2023-04-26T00:53:05;100777.78;;;3.58;90.62
62333;BME280;48624;49.812;8.562;2023-04-26T00:55:32;100778.66;;;3.58;89.79
62333;BME280;48624;49.812;8.562;2023-04-26T00:57:58;100773.44;;;3.57;89.50
62333;BME280;48624;49.812;8.562;2023-04-26T01:00:23;100773.38;;;3.33;91.80
62333;BME280;48624;49.812;8.562;2023-04-26T01:02:49;100777.28;;;3.46;90.59
62333;BME280;48624;49.812;8.562;2023-04-26T01:05:15;100781.94;;;3.37;91.05
62333;BME280;48624;49.812;8.562;2023-04-26T01:07:40;100778.50;;;3.36;91.37
62333;BME280;48624;49.812;8.562;2023-04-26T01:10:06;100782.16;;;3.30;91.49
62333;BME280;48624;49.812;8.562;2023-04-26T01:12:33;100775.16;;;3.31;91.17
62333;BME280;48624;49.812;8.562;2023-04-26T01:14:59;100778.94;;;3.22;91.87
62333;BME280;48624;49.812;8.562;2023-04-26T01:17:25;100776.16;;;3.27;92.09
62333;BME280;48624;49.812;8.562;2023-04-26T01:19:50;100767.66;;;3.20;92.08
62333;BME280;48624;49.812;8.562;2023-04-26T01:22:18;100773.84;;;3.17;91.70
62333;BME280;48624;49.812;8.562;2023-04-26T01:24:47;100776.72;;;3.10;92.21
62333;BME280;48624;49.812;8.562;2023-04-26T01:27:14;100771.81;;;2.99;92.85
62333;BME280;48624;49.812;8.562;2023-04-26T01:29:40;100767.34;;;3.02;92.59
62333;BME280;48624;49.812;8.562;2023-04-26T01:32:06;100765.50;;;3.04;92.51
62333;BME280;48624;49.812;8.562;2023-04-26T01:34:31;100765.00;;;2.93;93.23
62333;BME280;48624;49.812;8.562;2023-04-26T01:36:59;100756.91;;;3.01;93.64
62333;BME280;48624;49.812;8.562;2023-04-26T01:39:24;100762.91;;;3.04;92.59
62333;BME280;48624;49.812;8.562;2023-04-26T01:41:49;100764.06;;;2.96;94.11
62333;BME280;48624;49.812;8.562;2023-04-26T01:44:15;100769.19;;;2.99;93.03
62333;BME280;48624;49.812;8.562;2023-04-26T01:46:40;100761.19;;;3.03;92.21
62333;BME280;48624;49.812;8.562;2023-04-26T01:49:06;100757.44;;;2.84;93.21
62333;BME280;48624;49.812;8.562;2023-04-26T01:51:31;100762.38;;;2.93;92.83
62333;BME280;48624;49.812;8.562;2023-04-26T01:53:56;100771.03;;;2.95;92.62
62333;BME280;48624;49.812;8.562;2023-04-26T01:56:22;100770.47;;;2.85;93.75
62333;BME280;48624;49.812;8.562;2023-04-26T01:58:48;100768.97;;;2.76;93.46
62333;BME280;48624;49.812;8.562;2023-04-26T02:01:13;100769.91;;;2.74;93.09
62333;BME280;48624;49.812;8.562;2023-04-26T02:03:38;100766.50;;;2.72;92.95
62333;BME280;48624;49.812;8.562;2023-04-26T02:06:04;100766.84;;;2.61;93.32
62333;BME280;48624;49.812;8.562;2023-04-26T02:08:29;100771.25;;;2.59;93.56
62333;BME280;48624;49.812;8.562;2023-04-26T02:10:55;100768.69;;;2.57;93.57
62333;BME280;48624;49.812;8.562;2023-04-26T02:13:20;100774.91;;;2.53;93.48
62333;BME280;48624;49.812;8.562;2023-04-26T02:15:46;100778.31;;;2.55;92.75
62333;BME280;48624;49.812;8.562;2023-04-26T02:18:12;100775.97;;;2.46;93.80
62333;BME280;48624;49.812;8.562;2023-04-26T02:20:41;100776.31;;;2.33;94.72
62333;BME280;48624;49.812;8.562;2023-04-26T02:23:10;100782.47;;;2.32;94.32
62333;BME280;48624;49.812;8.562;2023-04-26T02:25:36;100777.34;;;2.28;93.91
62333;BME280;48624;49.812;8.562;2023-04-26T02:28:02;100778.41;;;2.22;93.88
62333;BME280;48624;49.812;8.562;2023-04-26T02:30:27;100779.34;;;2.18;93.94
62333;BME280;48624;49.812;8.562;2023-04-26T02:32:53;100779.69;;;2.05;94.46
62333;BME280;48624;49.812;8.562;2023-04-26T02:35:19;100776.97;;;1.77;96.53
62333;BME280;48624;49.812;8.562;2023-04-26T02:37:44;100778.44;;;1.87;96.67
62333;BME280;48624;49.812;8.562;2023-04-26T02:40:15;100765.31;;;1.89;96.42
62333;BME280;48624;49.812;8.562;2023-04-26T02:42:41;100769.69;;;1.90;97.02
62333;BME280;48624;49.812;8.562;2023-04-26T02:45:06;100771.44;;;1.88;96.96
62333;BME280;48624;49.812;8.562;2023-04-26T02:47:32;100779.47;;;1.82;97.38
62333;BME280;48624;49.812;8.562;2023-04-26T02:49:57;100770.16;;;1.71;97.92
62333;BME280;48624;49.812;8.562;2023-04-26T02:52:22;100776.09;;;1.78;98.36
62333;BME280;48624;49.812;8.562;2023-04-26T02:54:48;100774.38;;;1.77;98.18
62333;BME280;48624;49.812;8.562;2023-04-26T02:57:13;100769.94;;;1.80;98.69
62333;BME280;48624;49.812;8.562;2023-04-26T02:59:38;100768.91;;;1.86;97.86
62333;BME280;48624;49.812;8.562;2023-04-26T03:02:03;100771.09;;;1.69;97.81
62333;BME280;48624;49.812;8.562;2023-04-26T03:04:32;100779.50;;;1.80;98.13
62333;BME280;48624;49.812;8.562;2023-04-26T03:06:58;100775.31;;;1.74;97.72
62333;BME280;48624;49.812;8.562;2023-04-26T03:09:23;100770.97;;;1.73;97.71
62333;BME280;48624;49.812;8.562;2023-04-26T03:11:48;100771.22;;;1.64;98.74
62333;BME280;48624;49.812;8.562;2023-04-26T03:14:14;100765.66;;;1.76;97.37
62333;BME280;48624;49.812;8.562;2023-04-26T03:16:40;100770.03;;;1.76;97.17
62333;BME280;48624;49.812;8.562;2023-04-26T03:19:06;100769.28;;;1.71;98.10
62333;BME280;48624;49.812;8.562;2023-04-26T03:21:32;100768.78;;;1.56;97.97
62333;BME280;48624;49.812;8.562;2023-04-26T03:23:57;100771.28;;;1.61;98.24
62333;BME280;48624;49.812;8.562;2023-04-26T03:26:22;100779.16;;;1.59;98.43
62333;BME280;48624;49.812;8.562;2023-04-26T03:28:48;100765.06;;;1.66;98.20
62333;BME280;48624;49.812;8.562;2023-04-26T03:31:13;100771.28;;;1.61;97.80
62333;BME280;48624;49.812;8.562;2023-04-26T03:33:38;100763.41;;;1.62;97.41
62333;BME280;48624;49.812;8.562;2023-04-26T03:36:04;100774.66;;;1.64;97.18
62333;BME280;48624;49.812;8.562;2023-04-26T03:38:29;100771.22;;;1.64;96.99
62333;BME280;48624;49.812;8.562;2023-04-26T03:40:54;100766.25;;;1.53;97.36
62333;BME280;48624;49.812;8.562;2023-04-26T03:43:19;100768.06;;;1.49;97.84
62333;BME280;48624;49.812;8.562;2023-04-26T03:45:48;100765.59;;;1.45;97.40
62333;BME280;48624;49.812;8.562;2023-04-26T03:48:14;100766.69;;;1.34;97.64
62333;BME280;48624;49.812;8.562;2023-04-26T03:50:40;100766.69;;;1.34;98.71
62333;BME280;48624;49.812;8.562;2023-04-26T03:53:05;100765.69;;;1.40;98.29
62333;BME280;48624;49.812;8.562;2023-04-26T03:55:31;100767.63;;;1.32;98.55
62333;BME280;48624;49.812;8.562;2023-04-26T03:57:56;100769.06;;;1.45;97.40
62333;BME280;48624;49.812;8.562;2023-04-26T04:00:22;100765.81;;;1.35;98.19
62333;BME280;48624;49.812;8.562;2023-04-26T04:02:47;100769.31;;;1.34;98.85
62333;BME280;48624;49.812;8.562;2023-04-26T04:05:12;100767.56;;;1.35;99.10
62333;BME280;48624;49.812;8.562;2023-04-26T04:07:38;100763.19;;;1.35;99.04
62333;BME280;48624;49.812;8.562;2023-04-26T04:10:03;100762.91;;;1.48;98.01
62333;BME280;48624;49.812;8.562;2023-04-26T04:12:29;100770.00;;;1.41;98.49
62333;BME280;48624;49.812;8.562;2023-04-26T04:14:54;100767.47;;;1.40;98.20
62333;BME280;48624;49.812;8.562;2023-04-26T04:17:20;100769.38;;;1.33;97.83
62333;BME280;48624;49.812;8.562;2023-04-26T04:19:45;100765.78;;;1.37;97.72
62333;BME280;48624;49.812;8.562;2023-04-26T04:22:11;100771.97;;;1.33;97.71
62333;BME280;48624;49.812;8.562;2023-04-26T04:24:36;100766.00;;;1.28;97.11
62333;BME280;48624;49.812;8.562;2023-04-26T04:27:02;100774.03;;;1.20;97.10
62333;BME280;48624;49.812;8.562;2023-04-26T04:29:28;100769.72;;;1.17;97.42
62333;BME280;48624;49.812;8.562;2023-04-26T04:31:54;100771.44;;;1.18;97.33
62333;BME280;48624;49.812;8.562;2023-04-26T04:34:20;100774.38;;;1.04;98.36
62333;BME280;48624;49.812;8.562;2023-04-26T04:36:45;100776.16;;;1.02;99.80
62333;BME280;48624;49.812;8.562;2023-04-26T04:39:10;100781.31;;;1.05;99.35
62333;BME280;48624;49.812;8.562;2023-04-26T04:41:41;100783.19;;;0.99;99.58
62333;BME280;48624;49.812;8.562;2023-04-26T04:44:15;100789.03;;;1.10;99.32
62333;BME280;48624;49.812;8.562;2023-04-26T04:46:41;100795.31;;;1.01;98.65
62333;BME280;48624;49.812;8.562;2023-04-26T04:49:07;100800.38;;;1.07;99.51
62333;BME280;48624;49.812;8.562;2023-04-26T04:51:34;100800.34;;;1.09;98.82
62333;BME280;48624;49.812;8.562;2023-04-26T04:54:08;100800.94;;;1.22;98.88
62333;BME280;48624;49.812;8.562;2023-04-26T04:56:33;100804.56;;;1.16;99.46
62333;BME280;48624;49.812;8.562;2023-04-26T04:58:59;100802.84;;;1.15;99.37
62333;BME280;48624;49.812;8.562;2023-04-26T05:01:24;100814.00;;;1.22;99.60
62333;BME280;48624;49.812;8.562;2023-04-26T05:03:50;100804.22;;;1.30;98.67
62333;BME280;48624;49.812;8.562;2023-04-26T05:06:15;100811.91;;;1.36;98.64
62333;BME280;48624;49.812;8.562;2023-04-26T05:08:40;100815.94;;;1.50;98.61
62333;BME280;48624;49.812;8.562;2023-04-26T05:11:05;100801.97;;;1.52;98.42
62333;BME280;48624;49.812;8.562;2023-04-26T05:13:31;100809.25;;;1.74;98.05
62333;BME280;48624;49.812;8.562;2023-04-26T05:15:56;100818.69;;;1.80;97.23
62333;BME280;48624;49.812;8.562;2023-04-26T05:18:21;100819.47;;;1.84;97.81
62333;BME280;48624;49.812;8.562;2023-04-26T05:20:47;100826.97;;;1.98;96.36
62333;BME280;48624;49.812;8.562;2023-04-26T05:23:12;100824.81;;;2.12;95.00
62333;BME280;48624;49.812;8.562;2023-04-26T05:25:37;100823.19;;;2.08;95.67
62333;BME280;48624;49.812;8.562;2023-04-26T05:28:03;100826.63;;;2.10;95.96
62333;BME280;48624;49.812;8.562;2023-04-26T05:30:28;100824.91;;;2.09;96.77
62333;BME280;48624;49.812;8.562;2023-04-26T05:32:54;100826.28;;;2.22;95.92
62333;BME280;48624;49.812;8.562;2023-04-26T05:35:21;100833.81;;;2.35;95.75
62333;BME280;48624;49.812;8.562;2023-04-26T05:37:46;100836.19;;;2.44;95.92
62333;BME280;48624;49.812;8.562;2023-04-26T05:40:12;100829.00;;;2.51;95.82
62333;BME280;48624;49.812;8.562;2023-04-26T05:42:37;100837.53;;;2.58;95.69
62333;BME280;48624;49.812;8.562;2023-04-26T05:45:03;100837.66;;;2.53;95.71
62333;BME280;48624;49.812;8.562;2023-04-26T05:47:29;100838.22;;;2.64;96.22
62333;BME280;48624;49.812;8.562;2023-04-26T05:49:54;100833.88;;;2.63;96.58
62333;BME280;48624;49.812;8.562;2023-04-26T05:52:20;100841.16;;;2.84;96.01
62333;BME280;48624;49.812;8.562;2023-04-26T05:54:46;100831.97;;;3.00;95.24
62333;BME280;48624;49.812;8.562;2023-04-26T05:57:11;100837.63;;;3.15;94.56
62333;BME280;48624;49.812;8.562;2023-04-26T05:59:38;100837.28;;;3.27;93.95
62333;BME280;48624;49.812;8.562;2023-04-26T06:02:03;100842.13;;;3.40;93.41
62333;BME280;48624;49.812;8.562;2023-04-26T06:04:29;100855.69;;;3.53;93.26
62333;BME280;48624;49.812;8.562;2023-04-26T06:06:54;100857.63;;;3.46;93.10
62333;BME280;48624;49.812;8.562;2023-04-26T06:09:19;100858.16;;;3.29;93.75
62333;BME280;48624;49.812;8.562;2023-04-26T06:11:45;100861.72;;;3.55;93.58
62333;BME280;48624;49.812;8.562;2023-04-26T06:14:10;100866.66;;;3.64;92.42
62333;BME280;48624;49.812;8.562;2023-04-26T06:16:36;100865.75;;;3.92;91.75
62333;BME280;48624;49.812;8.562;2023-04-26T06:19:01;100861.50;;;4.15;91.02
62333;BME280;48624;49.812;8.562;2023-04-26T06:21:26;100864.59;;;4.26;91.03
62333;BME280;48624;49.812;8.562;2023-04-26T06:23:52;100861.72;;;4.34;91.30
62333;BME280;48624;49.812;8.562;2023-04-26T06:26:17;100874.59;;;4.40;91.51
62333;BME280;48624;49.812;8.562;2023-04-26T06:28:42;100870.06;;;4.46;91.58
62333;BME280;48624;49.812;8.562;2023-04-26T06:31:08;100882.53;;;4.39;91.86
62333;BME280;48624;49.812;8.562;2023-04-26T06:33:33;100880.19;;;4.56;91.34
62333;BME280;48624;49.812;8.562;2023-04-26T06:35:58;100877.47;;;4.58;92.20
62333;BME280;48624;49.812;8.562;2023-04-26T06:38:23;100876.75;;;4.78;90.52
62333;BME280;48624;49.812;8.562;2023-04-26T06:40:49;100875.03;;;5.01;91.33
62333;BME280;48624;49.812;8.562;2023-04-26T06:43:14;100872.19;;;5.07;90.64
62333;BME280;48624;49.812;8.562;2023-04-26T06:45:40;100877.44;;;5.07;87.64
62333;BME280;48624;49.812;8.562;2023-04-26T06:48:05;100880.50;;;5.19;86.03
62333;BME280;48624;49.812;8.562;2023-04-26T06:50:31;100872.22;;;5.30;86.24
62333;BME280;48624;49.812;8.562;2023-04-26T06:52:56;100871.84;;;5.17;84.40
62333;BME280;48624;49.812;8.562;2023-04-26T06:55:22;100868.00;;;5.48;84.30
62333;BME280;48624;49.812;8.562;2023-04-26T06:57:49;100862.94;;;5.43;84.06
62333;BME280;48624;49.812;8.562;2023-04-26T07:00:15;100870.88;;;5.64;83.15
62333;BME280;48624;49.812;8.562;2023-04-26T07:02:40;100865.00;;;6.00;83.42
62333;BME280;48624;49.812;8.562;2023-04-26T07:05:06;100874.97;;;6.14;82.99
62333;BME280;48624;49.812;8.562;2023-04-26T07:07:31;100867.88;;;6.77;80.91
62333;BME280;48624;49.812;8.562;2023-04-26T07:09:57;100873.91;;;6.60;80.23
62333;BME280;48624;49.812;8.562;2023-04-26T07:12:22;100864.72;;;6.69;80.75
62333;BME280;48624;49.812;8.562;2023-04-26T07:14:47;100869.59;;;6.97;79.80
62333;BME280;48624;49.812;8.562;2023-04-26T07:17:12;100864.41;;;6.96;79.59
62333;BME280;48624;49.812;8.562;2023-04-26T07:19:38;100864.69;;;7.08;79.42
62333;BME280;48624;49.812;8.562;2023-04-26T07:22:03;100863.13;;;7.04;78.36
62333;BME280;48624;49.812;8.562;2023-04-26T07:24:29;100869.16;;;7.45;77.47
62333;BME280;48624;49.812;8.562;2023-04-26T07:26:55;100867.25;;;7.10;76.70
62333;BME280;48624;49.812;8.562;2023-04-26T07:29:20;100869.13;;;7.08;76.85
62333;BME280;48624;49.812;8.562;2023-04-26T07:31:45;100860.69;;;7.38;76.44
62333;BME280;48624;49.812;8.562;2023-04-26T07:34:11;100861.03;;;7.49;75.80
62333;BME280;48624;49.812;8.562;2023-04-26T07:36:37;100859.69;;;7.95;73.94
62333;BME280;48624;49.812;8.562;2023-04-26T07:39:02;100860.00;;;8.07;73.44
62333;BME280;48624;49.812;8.562;2023-04-26T07:41:29;100865.81;;;7.78;72.50
62333;BME280;48624;49.812;8.562;2023-04-26T07:43:55;100862.00;;;8.01;75.09
62333;BME280;48624;49.812;8.562;2023-04-26T07:46:20;100856.25;;;8.11;74.85
62333;BME280;48624;49.812;8.562;2023-04-26T07:48:45;100860.75;;;8.26;73.56
62333;BME280;48624;49.812;8.562;2023-04-26T07:51:11;100860.75;;;8.26;72.80
62333;BME280;48624;49.812;8.562;2023-04-26T07:53:38;100865.06;;;8.63;73.31
62333;BME280;48624;49.812;8.562;2023-04-26T07:56:04;100867.50;;;8.32;73.44
62333;BME280;48624;49.812;8.562;2023-04-26T07:58:30;100867.47;;;8.50;73.01
62333;BME280;48624;49.812;8.562;2023-04-26T08:00:57;100854.47;;;8.96;72.48
62333;BME280;48624;49.812;8.562;2023-04-26T08:03:22;100869.81;;;9.06;71.69
62333;BME280;48624;49.812;8.562;2023-04-26T08:05:48;100854.66;;;8.93;69.80
62333;BME280;48624;49.812;8.562;2023-04-26T08:08:13;100865.72;;;8.84;68.62
62333;BME280;48624;49.812;8.562;2023-04-26T08:10:41;100854.66;;;9.09;68.35
62333;BME280;48624;49.812;8.562;2023-04-26T08:13:07;100857.47;;;9.38;67.93
62333;BME280;48624;49.812;8.562;2023-04-26T08:15:32;100859.69;;;9.30;67.30
62333;BME280;48624;49.812;8.562;2023-04-26T08:17:57;100858.91;;;9.44;67.33
62333;BME280;48624;49.812;8.562;2023-04-26T08:20:23;100858.91;;;9.28;68.83
62333;BME280;48624;49.812;8.562;2023-04-26T08:22:48;100857.78;;;9.64;67.35
62333;BME280;48624;49.812;8.562;2023-04-26T08:25:14;100866.28;;;10.00;65.59
62333;BME280;48624;49.812;8.562;2023-04-26T08:27:39;100861.19;;;9.97;63.74
62333;BME280;48624;49.812;8.562;2023-04-26T08:30:05;100859.34;;;9.83;62.15
62333;BME280;48624;49.812;8.562;2023-04-26T08:32:31;100860.69;;;9.90;61.57
62333;BME280;48624;49.812;8.562;2023-04-26T08:34:58;100849.25;;;10.35;61.40
62333;BME280;48624;49.812;8.562;2023-04-26T08:37:23;100861.41;;;10.23;62.35
62333;BME280;48624;49.812;8.562;2023-04-26T08:39:48;100852.91;;;10.32;62.58
62333;BME280;48624;49.812;8.562;2023-04-26T08:42:15;100855.03;;;10.41;62.56
62333;BME280;48624;49.812;8.562;2023-04-26T08:44:42;100850.03;;;10.80;59.66
62333;BME280;48624;49.812;8.562;2023-04-26T08:47:28;100859.31;;;10.73;56.26
62333;BME280;48624;49.812;8.562;2023-04-26T08:49:57;100852.56;;;11.11;56.44
62333;BME280;48624;49.812;8.562;2023-04-26T08:52:29;100854.47;;;11.36;53.75
62333;BME280;48624;49.812;8.562;2023-04-26T08:54:56;100854.41;;;11.23;53.74
62333;BME280;48624;49.812;8.562;2023-04-26T08:57:23;100840.94;;;10.85;52.58
62333;BME280;48624;49.812;8.562;2023-04-26T08:59:49;100835.88;;;11.09;54.26
62333;BME280;48624;49.812;8.562;2023-04-26T09:02:19;100846.41;;;11.65;53.34
62333;BME280;48624;49.812;8.562;2023-04-26T09:04:45;100839.28;;;11.66;49.34
62333;BME280;48624;49.812;8.562;2023-04-26T09:07:15;100829.44;;;11.41;52.28
62333;BME280;48624;49.812;8.562;2023-04-26T09:09:48;100837.50;;;12.07;52.10
62333;BME280;48624;49.812;8.562;2023-04-26T09:12:17;100828.19;;;11.74;51.91
62333;BME280;48624;49.812;8.562;2023-04-26T09:14:44;100832.50;;;11.62;52.30
62333;BME280;48624;49.812;8.562;2023-04-26T09:17:29;100835.00;;;11.23;52.18
62333;BME280;48624;49.812;8.562;2023-04-26T09:19:55;100831.34;;;11.79;51.43
62333;BME280;48624;49.812;8.562;2023-04-26T09:22:33;100831.72;;;12.00;49.32
62333;BME280;48624;49.812;8.562;2023-04-26T09:25:00;100845.22;;;11.97;52.33
62333;BME280;48624;49.812;8.562;2023-04-26T09:27:40;100839.44;;;12.31;51.82
62333;BME280;48624;49.812;8.562;2023-04-26T09:30:10;100831.72;;;12.00;53.33
62333;BME280;48624;49.812;8.562;2023-04-26T09:32:51;100838.56;;;12.17;53.38
62333;BME280;48624;49.812;8.562;2023-04-26T09:38:07;100839.53;;;12.29;50.76
62333;BME280;48624;49.812;8.562;2023-04-26T09:40:47;100826.25;;;13.06;48.85
62333;BME280;48624;49.812;8.562;2023-04-26T09:43:20;100837.56;;;12.83;50.47
62333;BME280;48624;49.812;8.562;2023-04-26T09:48:24;100834.31;;;13.66;48.04
62333;BME280;48624;49.812;8.562;2023-04-26T09:50:56;100824.78;;;14.33;45.12
62333;BME280;48624;49.812;8.562;2023-04-26T09:53:29;100826.50;;;13.76;44.10
62333;BME280;48624;49.812;8.562;2023-04-26T09:55:57;100827.63;;;12.35;48.40
62333;BME280;48624;49.812;8.562;2023-04-26T09:58:29;100825.59;;;12.26;46.79
62333;BME280;48624;49.812;8.562;2023-04-26T10:00:55;100818.38;;;13.28;46.23
62333;BME280;48624;49.812;8.562;2023-04-26T10:03:21;100816.88;;;13.62;45.46
62333;BME280;48624;49.812;8.562;2023-04-26T10:05:47;100814.63;;;13.07;46.54
62333;BME280;48624;49.812;8.562;2023-04-26T10:08:12;100816.28;;;13.21;47.11
62333;BME280;48624;49.812;8.562;2023-04-26T10:10:38;100817.31;;;12.56;43.75
62333;BME280;48624;49.812;8.562;2023-04-26T10:13:04;100811.50;;;13.50;45.44
62333;BME280;48624;49.812;8.562;2023-04-26T10:15:30;100812.47;;;13.85;44.37
62333;BME280;48624;49.812;8.562;2023-04-26T10:17:56;100809.88;;;14.31;42.72
62333;BME280;48624;49.812;8.562;2023-04-26T10:20:22;100808.81;;;14.56;41.42
62333;BME280;48624;49.812;8.562;2023-04-26T10:22:52;100814.72;;;14.25;41.99
62333;BME280;48624;49.812;8.562;2023-04-26T10:25:19;100809.00;;;14.07;42.37
62333;BME280;48624;49.812;8.562;2023-04-26T10:30:15;100811.63;;;13.96;43.09
62333;BME280;48624;49.812;8.562;2023-04-26T10:35:23;100796.78;;;14.16;43.37
62333;BME280;48624;49.812;8.562;2023-04-26T10:40:30;100799.28;;;13.48;42.31
62333;BME280;48624;49.812;8.562;2023-04-26T10:45:34;100805.41;;;14.20;40.21
62333;BME280;48624;49.812;8.562;2023-04-26T10:55:57;100791.97;;;14.55;40.41
62333;BME280;48624;49.812;8.562;2023-04-26T10:58:33;100788.06;;;14.48;40.55
62333;BME280;48624;49.812;8.562;2023-04-26T11:01:12;100776.53;;;14.70;40.76
62333;BME280;48624;49.812;8.562;2023-04-26T11:06:22;100776.38;;;15.18;40.13
62333;BME280;48624;49.812;8.562;2023-04-26T11:08:47;100771.25;;;15.47;38.99
62333;BME280;48624;49.812;8.562;2023-04-26T11:11:15;100772.31;;;14.22;39.47
62333;BME280;48624;49.812;8.562;2023-04-26T11:13:42;100766.13;;;14.45;39.84
62333;BME280;48624;49.812;8.562;2023-04-26T11:18:34;100765.59;;;15.83;37.73
62333;BME280;48624;49.812;8.562;2023-04-26T11:21:00;100758.63;;;15.71;37.22
62333;BME280;48624;49.812;8.562;2023-04-26T11:23:29;100753.88;;;14.99;37.33
62333;BME280;48624;49.812;8.562;2023-04-26T11:25:58;100762.66;;;15.44;38.98
62333;BME280;48624;49.812;8.562;2023-04-26T11:28:24;100761.91;;;15.20;38.85
62333;BME280;48624;49.812;8.562;2023-04-26T11:30:49;100752.78;;;15.23;37.55
62333;BME280;48624;49.812;8.562;2023-04-26T11:33:17;100753.91;;;15.95;38.50
62333;BME280;48624;49.812;8.562;2023-04-26T11:35:44;100748.47;;;15.86;36.57
62333;BME280;48624;49.812;8.562;2023-04-26T11:38:10;100756.69;;;16.15;37.76
62333;BME280;48624;49.812;8.562;2023-04-26T11:40:35;100744.19;;;14.64;40.32
62333;BME280;48624;49.812;8.562;2023-04-26T11:43:05;100737.25;;;16.54;36.96
62333;BME280;48624;49.812;8.562;2023-04-26T11:45:32;100737.19;;;15.82;37.90
62333;BME280;48624;49.812;8.562;2023-04-26T11:48:00;100737.19;;;16.03;38.18
62333;BME280;48624;49.812;8.562;2023-04-26T11:50:26;100730.13;;;15.71;39.29
62333;BME280;48624;49.812;8.562;2023-04-26T11:52:55;100729.69;;;15.01;39.71
62333;BME280;48624;49.812;8.562;2023-04-26T11:55:28;100731.88;;;17.15;35.12
62333;BME280;48624;49.812;8.562;2023-04-26T11:57:56;100732.41;;;16.38;36.15
62333;BME280;48624;49.812;8.562;2023-04-26T12:00:22;100728.34;;;16.95;36.74
62333;BME280;48624;49.812;8.562;2023-04-26T12:02:49;100722.41;;;18.46;33.24
62333;BME280;48624;49.812;8.562;2023-04-26T12:05:24;100726.78;;;16.00;34.25
62333;BME280;48624;49.812;8.562;2023-04-26T12:07:55;100729.25;;;17.92;34.53
62333;BME280;48624;49.812;8.562;2023-04-26T12:10:33;100729.69;;;18.25;33.17
62333;BME280;48624;49.812;8.562;2023-04-26T12:12:59;100727.53;;;18.67;31.90
62333;BME280;48624;49.812;8.562;2023-04-26T12:15:30;100722.53;;;18.72;31.85
62333;BME280;48624;49.812;8.562;2023-04-26T12:18:07;100722.13;;;17.53;32.85
62333;BME280;48624;49.812;8.562;2023-04-26T12:20:34;100724.56;;;17.27;34.78
62333;BME280;48624;49.812;8.562;2023-04-26T12:23:07;100717.94;;;18.08;33.43
62333;BME280;48624;49.812;8.562;2023-04-26T12:25:34;100716.81;;;17.14;35.13
62333;BME280;48624;49.812;8.562;2023-04-26T12:28:02;100719.91;;;17.39;32.26
62333;BME280;48624;49.812;8.562;2023-04-26T12:30:28;100715.72;;;17.94;34.05
62333;BME280;48624;49.812;8.562;2023-04-26T12:32:54;100709.19;;;18.62;33.74
62333;BME280;48624;49.812;8.562;2023-04-26T12:35:22;100710.97;;;18.90;32.34
62333;BME280;48624;49.812;8.562;2023-04-26T12:37:48;100713.78;;;18.24;34.32
62333;BME280;48624;49.812;8.562;2023-04-26T12:40:15;100709.84;;;18.92;33.06
62333;BME280;48624;49.812;8.562;2023-04-26T12:42:40;100710.16;;;17.57;35.15
62333;BME280;48624;49.812;8.562;2023-04-26T12:45:06;100715.56;;;17.18;34.81
62333;BME280;48624;49.812;8.562;2023-04-26T12:47:32;100712.13;;;17.36;35.04
62333;BME280;48624;49.812;8.562;2023-04-26T12:49:58;100720.41;;;15.70;37.73
62333;BME280;48624;49.812;8.562;2023-04-26T12:52:25;100712.72;;;17.10;36.04
62333;BME280;48624;49.812;8.562;2023-04-26T12:54:50;100715.13;;;18.84;33.58
62333;BME280;48624;49.812;8.562;2023-04-26T12:57:16;100705.97;;;18.77;32.60
62333;BME280;48624;49.812;8.562;2023-04-26T12:59:41;100707.94;;;17.33;33.76
62333;BME280;48624;49.812;8.562;2023-04-26T13:02:06;100715.47;;;17.77;31.60
62333;BME280;48624;49.812;8.562;2023-04-26T13:04:33;100705.81;;;18.96;33.16
62333;BME280;48624;49.812;8.562;2023-04-26T13:06:58;100711.78;;;19.63;31.05
62333;BME280;48624;49.812;8.562;2023-04-26T13:09:23;100708.44;;;19.43;31.40
62333;BME280;48624;49.812;8.562;2023-04-26T13:11:49;100705.81;;;20.04;30.30
62333;BME280;48624;49.812;8.562;2023-04-26T13:14:14;100709.72;;;20.44;29.79
62333;BME280;48624;49.812;8.562;2023-04-26T13:16:40;100703.25;;;19.23;30.21
62333;BME280;48624;49.812;8.562;2023-04-26T13:19:11;100714.41;;;20.07;30.66
62333;BME280;48624;49.812;8.562;2023-04-26T13:21:36;100699.31;;;18.99;31.55
62333;BME280;48624;49.812;8.562;2023-04-26T13:24:02;100714.09;;;20.45;30.76